createdAt,value
2023-05-19T00:01:19.887Z,14.00
2023-05-19T00:03:52.178Z,13.99
2023-05-19T00:06:23.651Z,13.97
2023-05-19T00:08:56.240Z,13.95
2023-05-19T00:11:23.456Z,13.94
2023-05-19T00:13:50.809Z,13.92
2023-05-19T00:16:18.024Z,13.92
2023-05-19T00:18:45.010Z,13.90
2023-05-19T00:21:11.770Z,13.89
2023-05-19T00:23:38.420Z,13.88
2023-05-19T00:26:05.220Z,13.88
2023-05-19T00:28:31.966Z,13.88
2023-05-19T00:30:58.907Z,13.86
2023-05-19T00:33:25.958Z,13.85
2023-05-19T00:35:53.057Z,13.84
2023-05-19T00:38:19.912Z,13.85
2023-05-19T00:40:47.001Z,13.83
2023-05-19T00:43:13.837Z,13.82
2023-05-19T00:45:40.887Z,13.82
2023-05-19T00:48:07.906Z,13.83
2023-05-19T00:50:35.067Z,13.83
2023-05-19T00:53:02.147Z,13.82
2023-05-19T00:55:31.117Z,13.83
2023-05-19T00:57:58.416Z,13.81
2023-05-19T01:00:25.221Z,13.83
2023-05-19T01:02:53.872Z,13.86
2023-05-19T01:05:20.643Z,13.88
2023-05-19T01:07:51.475Z,13.88
2023-05-19T01:10:18.628Z,13.89
2023-05-19T01:12:46.115Z,13.95
2023-05-19T01:15:13.476Z,14.01
2023-05-19T01:17:44.435Z,14.05
2023-05-19T01:20:11.420Z,14.10
2023-05-19T01:22:42.669Z,14.11
2023-05-19T01:25:29.079Z,14.13
2023-05-19T01:28:04.279Z,14.12
2023-05-19T01:30:36.891Z,14.16
2023-05-19T01:33:06.744Z,14.19
2023-05-19T01:35:35.791Z,14.21
2023-05-19T01:38:03.359Z,14.24
2023-05-19T01:40:32.056Z,14.31
2023-05-19T01:43:01.139Z,14.35
2023-05-19T01:45:29.202Z,14.39
2023-05-19T01:47:57.443Z,14.40
2023-05-19T01:50:24.941Z,14.40
2023-05-19T01:52:51.892Z,14.42
2023-05-19T01:55:18.929Z,14.40
2023-05-19T01:57:45.669Z,14.42
2023-05-19T02:00:19.361Z,14.42
2023-05-19T02:02:51.259Z,14.45
2023-05-19T02:05:37.122Z,14.44
2023-05-19T02:08:10.008Z,14.38
2023-05-19T02:10:40.546Z,14.35
2023-05-19T02:13:10.962Z,14.32
2023-05-19T02:15:39.869Z,14.34
2023-05-19T02:18:08.737Z,14.40
2023-05-19T02:20:35.599Z,14.42
2023-05-19T02:23:02.429Z,14.41
2023-05-19T02:25:29.605Z,14.41
2023-05-19T02:27:57.361Z,14.29
2023-05-19T02:30:24.685Z,14.30
2023-05-19T02:32:53.736Z,14.30
2023-05-19T02:35:20.891Z,14.25
2023-05-19T02:37:47.676Z,14.25
2023-05-19T02:40:15.033Z,14.21
2023-05-19T02:42:41.882Z,14.19
2023-05-19T02:45:09.537Z,14.15
2023-05-19T02:47:37.819Z,14.13
2023-05-19T02:50:05.778Z,14.12
2023-05-19T02:52:32.834Z,14.07
2023-05-19T02:55:00.175Z,14.01
2023-05-19T02:57:26.917Z,13.98
2023-05-19T02:59:53.659Z,13.96
2023-05-19T03:02:22.606Z,13.94
2023-05-19T03:04:50.320Z,13.92
2023-05-19T03:07:17.255Z,13.90
2023-05-19T03:09:43.998Z,13.89
2023-05-19T03:12:10.738Z,13.88
2023-05-19T03:14:38.090Z,13.84
2023-05-19T03:17:08.467Z,13.82
2023-05-19T03:19:36.310Z,13.83
2023-05-19T03:22:03.326Z,13.82
2023-05-19T03:24:30.280Z,13.81
2023-05-19T03:26:57.124Z,13.81
2023-05-19T03:29:24.060Z,13.83
2023-05-19T03:31:51.685Z,13.85
2023-05-19T03:34:18.565Z,13.87
2023-05-19T03:36:45.609Z,13.88
2023-05-19T03:39:15.635Z,13.85
2023-05-19T03:41:42.706Z,13.85
2023-05-19T03:44:09.522Z,13.88
2023-05-19T03:46:37.285Z,13.88
2023-05-19T03:49:23.175Z,13.87
2023-05-19T03:52:25.345Z,13.90
2023-05-19T03:55:07.448Z,13.94
2023-05-19T03:57:34.207Z,13.96
2023-05-19T04:00:00.889Z,13.96
2023-05-19T04:02:27.831Z,13.99
2023-05-19T04:04:55.806Z,14.00
2023-05-19T04:07:23.193Z,14.00
2023-05-19T04:09:50.453Z,13.99
2023-05-19T04:12:17.387Z,13.99
2023-05-19T04:14:45.464Z,14.00
2023-05-19T04:17:12.409Z,14.01
2023-05-19T04:19:39.857Z,14.03
2023-05-19T04:22:06.723Z,14.03
2023-05-19T04:24:33.389Z,14.05
2023-05-19T04:27:02.112Z,14.07
2023-05-19T04:29:29.072Z,14.11
2023-05-19T04:31:57.038Z,14.17
2023-05-19T04:34:24.418Z,14.24
2023-05-19T04:36:53.241Z,14.29
2023-05-19T04:39:21.180Z,14.35
2023-05-19T04:41:48.095Z,14.42
2023-05-19T04:44:17.603Z,14.46
2023-05-19T04:46:46.837Z,14.46
2023-05-19T04:49:14.152Z,14.42
2023-05-19T04:51:42.123Z,14.40
2023-05-19T04:54:09.581Z,14.41
2023-05-19T04:56:36.418Z,14.41
2023-05-19T04:59:04.389Z,14.42
2023-05-19T05:01:33.416Z,14.42
2023-05-19T05:04:02.242Z,14.49
2023-05-19T05:06:31.154Z,14.53
2023-05-19T05:08:58.102Z,14.58
2023-05-19T05:11:25.865Z,14.64
2023-05-19T05:13:53.771Z,14.69
2023-05-19T05:16:20.824Z,14.72
2023-05-19T05:18:48.183Z,14.72
2023-05-19T05:21:15.797Z,14.71
2023-05-19T05:23:43.025Z,14.75
2023-05-19T05:26:16.446Z,14.82
2023-05-19T05:28:43.287Z,14.89
2023-05-19T05:31:11.253Z,14.98
2023-05-19T05:33:39.046Z,15.13
2023-05-19T05:36:06.166Z,15.29
2023-05-19T05:38:33.828Z,15.40
2023-05-19T05:41:02.308Z,15.47
2023-05-19T05:43:29.559Z,15.49
2023-05-19T05:46:01.937Z,15.47
2023-05-19T05:48:30.014Z,15.54
2023-05-19T05:50:58.901Z,15.60
2023-05-19T05:53:29.832Z,15.64
2023-05-19T05:55:58.025Z,15.72
2023-05-19T05:58:28.538Z,15.82
2023-05-19T06:00:57.436Z,15.89
2023-05-19T06:03:26.608Z,15.94
2023-05-19T06:05:53.910Z,15.96
2023-05-19T06:08:20.824Z,16.14
2023-05-19T06:10:47.608Z,16.27
2023-05-19T06:13:18.400Z,16.32
2023-05-19T06:15:48.608Z,16.35
2023-05-19T06:18:20.687Z,16.39
2023-05-19T06:20:48.349Z,16.46
2023-05-19T06:23:15.294Z,16.65
2023-05-19T06:25:42.248Z,16.84
2023-05-19T06:28:10.545Z,17.00
2023-05-19T06:30:37.665Z,17.07
2023-05-19T06:33:16.901Z,17.20
2023-05-19T06:35:43.845Z,17.38
2023-05-19T06:38:10.717Z,17.69
2023-05-19T06:40:37.733Z,17.94
2023-05-19T06:43:04.577Z,18.08
2023-05-19T06:45:41.753Z,18.35
2023-05-19T06:48:08.871Z,18.74
2023-05-19T06:50:36.681Z,18.97
2023-05-19T06:53:03.515Z,19.15
2023-05-19T06:55:31.634Z,19.52
2023-05-19T06:57:58.361Z,19.82
2023-05-19T07:00:25.478Z,20.01
2023-05-19T07:02:52.807Z,20.19
2023-05-19T07:05:20.585Z,20.27
2023-05-19T07:07:51.016Z,20.68
2023-05-19T07:10:21.640Z,21.21
2023-05-19T07:12:48.486Z,21.43
2023-05-19T07:15:15.942Z,21.33
2023-05-19T07:17:43.957Z,21.34
2023-05-19T07:20:10.979Z,21.68
2023-05-19T07:22:39.344Z,21.72
2023-05-19T07:25:07.311Z,21.99
2023-05-19T07:27:34.253Z,22.44
2023-05-19T07:30:01.092Z,22.64
2023-05-19T07:32:27.881Z,22.60
2023-05-19T07:34:54.674Z,23.08
2023-05-19T07:37:21.520Z,23.34
2023-05-19T07:39:48.359Z,23.39
2023-05-19T07:42:15.106Z,23.51
2023-05-19T07:44:41.943Z,23.11
2023-05-19T07:47:08.797Z,23.23
2023-05-19T07:49:35.521Z,23.57
2023-05-19T07:52:02.463Z,23.77
2023-05-19T07:54:29.416Z,24.01
2023-05-19T07:56:56.356Z,24.33
2023-05-19T07:59:23.929Z,24.49
2023-05-19T08:01:50.684Z,24.83
2023-05-19T08:04:17.379Z,24.74
2023-05-19T08:06:44.563Z,24.64
2023-05-19T08:09:11.597Z,24.44
2023-05-19T08:11:38.452Z,24.72
2023-05-19T08:14:05.272Z,25.03
2023-05-19T08:16:31.984Z,24.93
2023-05-19T08:19:02.080Z,24.84
2023-05-19T08:21:28.949Z,24.71
2023-05-19T08:23:56.639Z,25.26
2023-05-19T08:26:23.384Z,25.00
2023-05-19T08:28:50.120Z,25.29
2023-05-19T08:31:17.849Z,25.66
2023-05-19T08:33:45.345Z,25.25
2023-05-19T08:36:11.974Z,25.07
2023-05-19T08:38:38.645Z,25.75
2023-05-19T08:41:05.467Z,25.96
2023-05-19T08:43:32.223Z,26.19
2023-05-19T08:46:00.277Z,26.33
2023-05-19T08:48:33.187Z,25.98
2023-05-19T08:51:18.531Z,25.89
2023-05-19T08:53:49.626Z,25.60
2023-05-19T08:56:19.530Z,25.02
2023-05-19T08:58:48.478Z,25.09
2023-05-19T09:01:18.203Z,25.30
2023-05-19T09:03:45.831Z,25.56
2023-05-19T09:06:12.899Z,25.30
2023-05-19T09:08:40.536Z,25.68
2023-05-19T09:11:08.273Z,26.18
2023-05-19T09:13:35.011Z,26.39
2023-05-19T09:16:02.715Z,26.16
2023-05-19T09:18:29.626Z,26.16
2023-05-19T09:21:01.839Z,25.83
2023-05-19T09:23:30.119Z,25.53
2023-05-19T09:25:57.057Z,24.65
2023-05-19T09:28:25.548Z,24.59
2023-05-19T09:31:02.210Z,24.43
2023-05-19T09:33:29.260Z,24.19
2023-05-19T09:35:56.568Z,24.63
2023-05-19T09:38:24.045Z,24.71
2023-05-19T09:40:51.716Z,25.17
2023-05-19T09:43:18.771Z,25.15
2023-05-19T09:45:45.839Z,25.29
2023-05-19T09:48:14.141Z,25.56
2023-05-19T09:50:42.170Z,25.93
2023-05-19T09:53:12.182Z,26.15
2023-05-19T09:55:40.497Z,26.21
2023-05-19T09:58:07.298Z,26.29
2023-05-19T10:00:34.488Z,26.26
2023-05-19T10:03:04.281Z,26.42
2023-05-19T10:05:32.746Z,26.41
2023-05-19T10:08:00.133Z,26.06
2023-05-19T10:10:26.893Z,25.68
2023-05-19T10:12:54.088Z,26.01
2023-05-19T10:15:23.145Z,26.25
2023-05-19T10:17:50.995Z,26.04
2023-05-19T10:20:18.358Z,25.78
2023-05-19T10:22:45.772Z,25.82
2023-05-19T10:25:17.946Z,25.89
2023-05-19T10:27:49.577Z,26.08
2023-05-19T10:30:26.696Z,26.02
2023-05-19T10:32:56.920Z,25.97
2023-05-19T10:35:31.940Z,25.69
2023-05-19T10:38:14.614Z,25.40
2023-05-19T10:40:50.383Z,25.81
2023-05-19T10:43:35.875Z,26.02
2023-05-19T10:46:03.932Z,25.81
2023-05-19T10:48:33.036Z,25.49
2023-05-19T10:50:59.771Z,25.70
2023-05-19T10:53:31.029Z,25.81
2023-05-19T10:56:02.178Z,25.96
2023-05-19T10:58:44.157Z,26.03
2023-05-19T11:01:14.053Z,25.88
2023-05-19T11:03:45.442Z,26.00
2023-05-19T11:06:18.353Z,25.97
2023-05-19T11:08:45.152Z,25.83
2023-05-19T11:11:18.942Z,25.92
2023-05-19T11:13:52.194Z,25.81
2023-05-19T11:16:20.448Z,25.72
2023-05-19T11:18:48.256Z,25.54
2023-05-19T11:21:15.808Z,25.15
2023-05-19T11:23:43.551Z,25.21
2023-05-19T11:26:10.353Z,25.41
2023-05-19T11:28:37.298Z,25.53
2023-05-19T11:31:07.488Z,25.58
2023-05-19T11:33:34.359Z,25.67
2023-05-19T11:36:02.269Z,25.58
2023-05-19T11:38:29.658Z,25.61
2023-05-19T11:40:56.540Z,25.61
2023-05-19T11:43:24.287Z,25.67
2023-05-19T11:45:51.293Z,25.75
2023-05-19T11:48:20.286Z,25.75
2023-05-19T11:50:47.015Z,25.48
2023-05-19T11:53:14.582Z,25.61
2023-05-19T11:55:43.055Z,25.62
2023-05-19T11:58:09.801Z,25.70
2023-05-19T12:00:38.718Z,25.74
2023-05-19T12:03:05.980Z,25.62
2023-05-19T12:05:39.108Z,25.62
2023-05-19T12:08:08.312Z,25.56
2023-05-19T12:10:35.339Z,25.58
2023-05-19T12:13:02.875Z,25.42
2023-05-19T12:15:31.069Z,25.43
2023-05-19T12:17:59.881Z,25.32
2023-05-19T12:20:28.264Z,25.37
2023-05-19T12:22:55.364Z,25.40
2023-05-19T12:25:22.427Z,25.47
2023-05-19T12:27:49.578Z,25.44
2023-05-19T12:30:16.614Z,25.31
2023-05-19T12:32:43.779Z,25.38
2023-05-19T12:35:11.214Z,25.39
2023-05-19T12:37:40.969Z,25.35
2023-05-19T12:40:10.436Z,25.41
2023-05-19T12:42:37.279Z,25.44
2023-05-19T12:45:04.381Z,25.46
2023-05-19T12:47:32.942Z,25.45
2023-05-19T12:49:59.842Z,25.43
2023-05-19T12:52:28.552Z,25.49
2023-05-19T12:55:06.477Z,25.46
2023-05-19T12:57:34.608Z,25.51
2023-05-19T13:00:06.370Z,25.56
2023-05-19T13:02:34.091Z,25.61
2023-05-19T13:05:00.949Z,25.62
2023-05-19T13:07:27.796Z,25.49
2023-05-19T13:09:54.476Z,25.25
2023-05-19T13:12:21.093Z,25.10
2023-05-19T13:14:47.720Z,24.90
2023-05-19T13:17:14.395Z,24.42
2023-05-19T13:19:41.665Z,24.22
2023-05-19T13:22:08.455Z,23.77
2023-05-19T13:24:35.441Z,23.69
2023-05-19T13:27:02.862Z,23.57
2023-05-19T13:29:29.498Z,23.50
2023-05-19T13:31:56.181Z,23.47
2023-05-19T13:34:22.876Z,23.45
2023-05-19T13:36:49.749Z,23.37
2023-05-19T13:39:17.899Z,23.30
2023-05-19T13:41:44.637Z,23.27
2023-05-19T13:44:11.309Z,23.21
2023-05-19T13:49:10.791Z,22.94
2023-05-19T13:51:39.166Z,22.68
2023-05-19T13:54:05.915Z,22.62
2023-05-19T13:56:32.853Z,22.57
2023-05-19T13:58:59.593Z,22.42
2023-05-19T14:01:26.324Z,22.28
2023-05-19T14:03:53.330Z,22.10
2023-05-19T14:06:20.227Z,22.07
2023-05-19T14:08:47.067Z,22.08
2023-05-19T14:11:19.135Z,22.05
2023-05-19T14:13:47.802Z,22.10
2023-05-19T14:16:14.683Z,22.18
2023-05-19T14:18:41.853Z,22.22
2023-05-19T14:21:08.755Z,22.22
2023-05-19T14:23:35.589Z,22.24
2023-05-19T14:26:02.450Z,22.27
2023-05-19T14:28:29.480Z,22.18
2023-05-19T14:30:56.322Z,22.13
2023-05-19T14:33:23.265Z,22.04
2023-05-19T14:35:50.105Z,22.03
2023-05-19T14:38:16.851Z,22.04
2023-05-19T14:40:44.103Z,22.08
2023-05-19T14:43:11.290Z,22.09
2023-05-19T14:45:38.400Z,22.07
2023-05-19T14:48:05.439Z,22.04
2023-05-19T14:50:32.485Z,22.01
2023-05-19T14:52:59.645Z,21.97
2023-05-19T14:55:26.380Z,21.91
2023-05-19T14:57:53.231Z,21.84
2023-05-19T15:00:20.376Z,21.82
2023-05-19T15:02:48.883Z,21.77
2023-05-19T15:05:15.902Z,21.77
2023-05-19T15:07:42.758Z,21.74
2023-05-19T15:10:09.594Z,21.69
2023-05-19T15:12:36.645Z,21.62
2023-05-19T15:15:03.579Z,21.61
2023-05-19T15:17:30.869Z,21.62
2023-05-19T15:19:57.676Z,21.62
2023-05-19T15:22:24.513Z,21.59
2023-05-19T15:24:51.256Z,21.60
2023-05-19T15:27:17.997Z,21.57
2023-05-19T15:29:44.736Z,21.58
2023-05-19T15:32:11.689Z,21.56
2023-05-19T15:34:38.629Z,21.56
2023-05-19T15:37:05.469Z,21.54
2023-05-19T15:39:33.275Z,21.55
2023-05-19T15:42:00.174Z,21.57
2023-05-19T15:44:28.941Z,21.59
2023-05-19T15:46:56.055Z,21.57
2023-05-19T15:49:24.518Z,21.55
2023-05-19T15:51:51.335Z,21.52
2023-05-19T15:54:18.285Z,21.48
2023-05-19T15:56:45.117Z,21.47
2023-05-19T15:59:11.865Z,21.44
2023-05-19T16:01:38.655Z,21.37
2023-05-19T16:04:06.180Z,21.31
2023-05-19T16:06:33.121Z,21.24
2023-05-19T16:08:59.952Z,21.23
2023-05-19T16:11:26.895Z,21.20
2023-05-19T16:13:54.064Z,21.16
2023-05-19T16:16:21.341Z,21.11
2023-05-19T16:18:48.304Z,21.08
2023-05-19T16:21:15.304Z,21.03
2023-05-19T16:23:42.133Z,20.97
2023-05-19T16:26:08.882Z,20.88
2023-05-19T16:28:35.829Z,20.77
2023-05-19T16:31:02.767Z,20.65
2023-05-19T16:33:30.170Z,20.57
2023-05-19T16:35:57.782Z,20.51
2023-05-19T16:38:24.619Z,20.44
2023-05-19T16:40:51.581Z,20.37
2023-05-19T16:43:18.307Z,20.31
2023-05-19T16:45:45.166Z,20.25
2023-05-19T16:48:12.135Z,20.19
2023-05-19T16:50:39.377Z,20.11
2023-05-19T16:53:06.391Z,20.07
2023-05-19T16:55:33.233Z,20.05
2023-05-19T16:57:59.970Z,20.03
2023-05-19T17:00:28.965Z,19.99
2023-05-19T17:02:55.890Z,19.93
2023-05-19T17:05:22.855Z,19.88
2023-05-19T17:07:49.691Z,19.83
2023-05-19T17:10:17.048Z,19.77
2023-05-19T17:12:43.892Z,19.72
2023-05-19T17:15:11.045Z,19.67
2023-05-19T17:17:38.056Z,19.61
2023-05-19T17:20:05.473Z,19.56
2023-05-19T17:22:32.278Z,19.51
2023-05-19T17:24:59.025Z,19.45
2023-05-19T17:27:25.770Z,19.37
2023-05-19T17:29:52.773Z,19.30
2023-05-19T17:32:25.040Z,19.26
2023-05-19T17:34:52.123Z,19.23
2023-05-19T17:37:22.956Z,19.20
2023-05-19T17:39:52.612Z,19.19
2023-05-19T17:42:19.815Z,19.15
2023-05-19T17:44:46.882Z,19.06
2023-05-19T17:47:13.715Z,18.99
2023-05-19T17:49:40.956Z,18.91
2023-05-19T17:52:08.117Z,18.82
2023-05-19T17:54:35.270Z,18.74
2023-05-19T17:57:04.513Z,18.67
2023-05-19T17:59:31.606Z,18.53
2023-05-19T18:01:58.696Z,18.45
2023-05-19T18:04:25.900Z,18.33
2023-05-19T18:06:53.155Z,18.18
2023-05-19T18:09:22.760Z,18.19
2023-05-19T18:11:49.707Z,18.28
2023-05-19T18:14:16.553Z,18.33
2023-05-19T18:16:43.492Z,18.38
2023-05-19T18:19:10.920Z,18.39
2023-05-19T18:21:37.656Z,18.29
2023-05-19T18:24:04.886Z,18.12
2023-05-19T18:26:32.607Z,17.95
2023-05-19T18:29:02.282Z,17.90
2023-05-19T18:31:29.060Z,17.82
2023-05-19T18:33:55.787Z,17.68
2023-05-19T18:36:23.045Z,17.58
2023-05-19T18:38:49.790Z,17.43
2023-05-19T18:41:16.429Z,17.32
2023-05-19T18:43:43.313Z,17.24
2023-05-19T18:46:12.946Z,17.14
2023-05-19T18:48:40.121Z,17.01
2023-05-19T18:51:07.478Z,16.91
2023-05-19T18:53:34.662Z,16.81
2023-05-19T18:56:05.161Z,16.72
2023-05-19T18:58:32.201Z,16.66
2023-05-19T19:00:59.096Z,16.57
2023-05-19T19:03:26.241Z,16.49
2023-05-19T19:05:54.791Z,16.41
2023-05-19T19:08:21.823Z,16.35
2023-05-19T19:10:49.997Z,16.30
2023-05-19T19:13:17.562Z,16.25
2023-05-19T19:15:44.812Z,16.21
2023-05-19T19:18:11.782Z,16.15
2023-05-19T19:20:38.441Z,16.10
2023-05-19T19:23:06.208Z,16.01
2023-05-19T19:25:33.245Z,15.93
2023-05-19T19:28:00.904Z,15.86
2023-05-19T19:30:28.728Z,15.79
2023-05-19T19:32:56.525Z,15.73
2023-05-19T19:35:23.436Z,15.67
2023-05-19T19:37:51.408Z,15.63
2023-05-19T19:40:18.265Z,15.56
2023-05-19T19:42:45.210Z,15.49
2023-05-19T19:45:14.043Z,15.41
2023-05-19T19:47:42.890Z,15.37
2023-05-19T19:50:10.355Z,15.35
2023-05-19T19:52:37.473Z,15.33
2023-05-19T19:55:04.632Z,15.32
2023-05-19T19:57:33.618Z,15.32
2023-05-19T20:00:07.432Z,15.32
2023-05-19T20:02:41.086Z,15.33
2023-05-19T20:05:13.237Z,15.31
2023-05-19T20:07:40.033Z,15.31
2023-05-19T20:10:07.193Z,15.30
2023-05-19T20:12:34.028Z,15.32
2023-05-19T20:15:01.054Z,15.31
2023-05-19T20:17:27.851Z,15.33
2023-05-19T20:19:56.404Z,15.36
2023-05-19T20:22:23.252Z,15.41
2023-05-19T20:24:50.110Z,15.41
2023-05-19T20:27:17.025Z,15.43
2023-05-19T20:29:45.099Z,15.46
2023-05-19T20:32:12.455Z,15.48
2023-05-19T20:34:40.702Z,15.43
2023-05-19T20:37:08.007Z,15.43
2023-05-19T20:39:34.911Z,15.46
2023-05-19T20:42:01.663Z,15.50
2023-05-19T20:44:28.408Z,15.55
2023-05-19T20:46:55.241Z,15.59
2023-05-19T20:49:21.909Z,15.64
2023-05-19T20:51:48.626Z,15.67
2023-05-19T20:54:16.317Z,15.69
2023-05-19T20:56:42.912Z,15.67
2023-05-19T20:59:09.766Z,15.64
2023-05-19T21:01:36.937Z,15.66
2023-05-19T21:04:06.421Z,15.71
2023-05-19T21:06:33.634Z,15.77
2023-05-19T21:09:03.382Z,15.80
2023-05-19T21:11:30.741Z,15.82
2023-05-19T21:13:57.682Z,15.83
2023-05-19T21:16:24.641Z,15.84
2023-05-19T21:18:51.591Z,15.81
2023-05-19T21:21:18.412Z,15.80
2023-05-19T21:23:45.155Z,15.78
2023-05-19T21:26:11.895Z,15.73
2023-05-19T21:28:38.742Z,15.66
2023-05-19T21:31:05.649Z,15.68
2023-05-19T21:33:32.633Z,15.69
2023-05-19T21:35:59.982Z,15.68
2023-05-19T21:38:27.130Z,15.66
2023-05-19T21:40:53.881Z,15.64
2023-05-19T21:43:21.450Z,15.64
2023-05-19T21:45:48.156Z,15.64
2023-05-19T21:48:15.131Z,15.61
2023-05-19T21:50:42.168Z,15.44
2023-05-19T21:53:09.316Z,15.35
2023-05-19T21:55:36.056Z,15.36
2023-05-19T21:58:03.001Z,15.39
2023-05-19T22:00:29.944Z,15.33
2023-05-19T22:02:56.773Z,15.35
2023-05-19T22:05:23.823Z,15.38
2023-05-19T22:07:50.666Z,15.42
2023-05-19T22:10:17.613Z,15.45
2023-05-19T22:12:44.455Z,15.47
2023-05-19T22:15:12.852Z,15.47
2023-05-19T22:17:39.821Z,15.45
2023-05-19T22:20:07.648Z,15.40
2023-05-19T22:22:34.635Z,15.36
2023-05-19T22:25:02.347Z,15.38
2023-05-19T22:27:29.297Z,15.43
2023-05-19T22:29:56.246Z,15.41
2023-05-19T22:32:23.082Z,15.32
2023-05-19T22:34:50.005Z,15.30
2023-05-19T22:37:16.768Z,15.31
2023-05-19T22:39:43.915Z,15.27
2023-05-19T22:42:10.650Z,15.26
2023-05-19T22:44:37.390Z,15.31
2023-05-19T22:47:04.284Z,15.38
2023-05-19T22:49:30.987Z,15.44
2023-05-19T22:51:57.817Z,15.47
2023-05-19T22:54:24.663Z,15.48
2023-05-19T22:56:51.541Z,15.45
2023-05-19T22:59:18.549Z,15.41
2023-05-19T23:01:46.130Z,15.42
2023-05-19T23:04:13.598Z,15.42
2023-05-19T23:06:40.610Z,15.39
2023-05-19T23:09:07.695Z,15.31
2023-05-19T23:11:35.421Z,15.32
2023-05-19T23:14:02.481Z,15.28
2023-05-19T23:16:29.327Z,15.28
2023-05-19T23:18:56.068Z,15.29
2023-05-19T23:21:22.890Z,15.26
2023-05-19T23:23:49.631Z,15.20
2023-05-19T23:26:16.373Z,15.13
2023-05-19T23:28:43.258Z,15.10
2023-05-19T23:31:10.070Z,15.00
2023-05-19T23:33:36.906Z,15.00
2023-05-19T23:36:07.762Z,14.99
2023-05-19T23:38:35.195Z,14.99
2023-05-19T23:41:02.245Z,14.99
2023-05-19T23:43:29.239Z,14.98
2023-05-19T23:45:56.046Z,14.98
2023-05-19T23:48:22.875Z,14.93
2023-05-19T23:50:49.616Z,14.83
2023-05-19T23:53:16.762Z,14.78
2023-05-19T23:55:44.172Z,14.78
2023-05-19T23:58:10.859Z,14.76
